Time;durP1;ratioP1;P1;durP2;ratioP2;P2;SDS_P1;SDS_P2;PMS_P1;PMS_P2;Temp;Humidity;BMP_temperature;BMP_pressure;BME280_temperature;BME280_humidity;BME280_pressure;Samples;Min_cycle;Max_cycle;Signal;HPM_P1;HPM_P2
2021/11/19 00:01:08;;;;;;;351.23;53.03;;;11.90;99.90;;;;;;6287793;22;20448;-73
2021/11/19 00:03:39;;;;;;;280.83;54.67;;;11.90;99.90;;;;;;6287669;22;20492;-72
2021/11/19 00:06:08;;;;;;;363.77;64.27;;;11.90;99.90;;;;;;6287863;22;20938;-72
2021/11/19 00:08:38;;;;;;;250.40;49.63;;;11.90;99.90;;;;;;6250515;22;20409;-72
2021/11/19 00:11:13;;;;;;;197.53;49.30;;;11.90;99.90;;;;;;6288059;22;20831;-73
2021/11/19 00:13:42;;;;;;;413.17;59.87;;;11.90;99.90;;;;;;6287774;22;20443;-73
2021/11/19 00:16:12;;;;;;;352.30;59.17;;;11.90;99.90;;;;;;6250937;22;20445;-72
2021/11/19 00:18:41;;;;;;;115.63;43.27;;;11.90;99.90;;;;;;6287619;22;20742;-72
2021/11/19 00:21:10;;;;;;;330.73;61.83;;;11.90;99.90;;;;;;6250154;22;20456;-73
2021/11/19 00:23:40;;;;;;;369.83;59.77;;;12.00;99.90;;;;;;6287538;22;20417;-72
2021/11/19 00:26:08;;;;;;;399.57;67.70;;;11.90;99.90;;;;;;6287533;22;20476;-72
2021/11/19 00:28:38;;;;;;;287.30;59.30;;;12.00;99.90;;;;;;6277635;22;20405;-72
2021/11/19 00:31:07;;;;;;;282.63;56.27;;;12.00;99.90;;;;;;6287775;22;20925;-72
2021/11/19 00:33:37;;;;;;;273.63;51.23;;;12.00;99.90;;;;;;6249947;22;20437;-72
2021/11/19 00:36:08;;;;;;;270.00;56.87;;;12.00;99.90;;;;;;6288274;22;20463;-72
2021/11/19 00:38:36;;;;;;;228.87;47.07;;;12.00;99.90;;;;;;6251543;22;20714;-72
2021/11/19 00:41:07;;;;;;;230.77;53.33;;;12.00;99.90;;;;;;6250018;22;20487;-72
2021/11/19 00:43:36;;;;;;;474.27;74.13;;;12.00;99.90;;;;;;6287516;22;20445;-73
2021/11/19 00:46:05;;;;;;;404.17;71.10;;;12.00;99.90;;;;;;6249884;22;20451;-72
2021/11/19 00:48:34;;;;;;;449.47;69.30;;;12.10;99.90;;;;;;6287437;22;20451;-72
2021/11/19 00:51:10;;;;;;;376.53;68.30;;;12.10;99.90;;;;;;6275611;22;20405;-73
2021/11/19 00:53:43;;;;;;;397.90;59.77;;;12.10;99.90;;;;;;6250039;22;20482;-72
2021/11/19 00:56:13;;;;;;;192.10;45.70;;;12.10;99.90;;;;;;6287837;22;20385;-72
2021/11/19 00:58:42;;;;;;;202.63;42.73;;;12.10;99.90;;;;;;6250452;22;20413;-72
2021/11/19 01:01:20;;;;;;;197.23;46.13;;;12.10;99.90;;;;;;6250095;22;20436;-72
2021/11/19 01:03:48;;;;;;;459.97;69.73;;;12.10;99.90;;;;;;6250379;22;20915;-72
2021/11/19 01:06:18;;;;;;;310.37;59.10;;;12.10;99.90;;;;;;6249783;22;20416;-72
2021/11/19 01:08:52;;;;;;;349.53;57.37;;;12.10;99.90;;;;;;6250614;22;20462;-73
2021/11/19 01:11:24;;;;;;;419.47;53.40;;;12.20;99.90;;;;;;6250990;22;20412;-73
2021/11/19 01:13:54;;;;;;;565.10;77.20;;;12.20;99.90;;;;;;6250114;22;20440;-72
2021/11/19 01:16:26;;;;;;;376.63;47.90;;;12.20;99.90;;;;;;6250055;22;20437;-73
2021/11/19 01:18:58;;;;;;;286.77;57.73;;;12.20;99.90;;;;;;6275566;22;20412;-73
2021/11/19 01:21:31;;;;;;;307.00;49.67;;;12.20;99.90;;;;;;6249888;22;20436;-73
2021/11/19 01:24:00;;;;;;;368.30;50.60;;;12.20;99.90;;;;;;6287776;22;20419;-72
2021/11/19 01:26:32;;;;;;;447.53;66.20;;;12.20;99.90;;;;;;6250157;22;20412;-73
2021/11/19 01:29:05;;;;;;;293.70;54.10;;;12.20;99.90;;;;;;6250144;22;20412;-73
2021/11/19 01:31:36;;;;;;;375.27;61.47;;;12.20;99.90;;;;;;6250191;22;20408;-73
2021/11/19 01:34:12;;;;;;;312.30;43.77;;;12.20;99.90;;;;;;6250153;22;20442;-73
2021/11/19 01:37:00;;;;;;;261.00;43.00;;;12.20;99.90;;;;;;6244835;23;20431;-72
2021/11/19 01:39:38;;;;;;;417.27;67.10;;;12.20;99.90;;;;;;6245063;23;20420;-73
2021/11/19 01:42:20;;;;;;;300.67;44.60;;;12.20;99.90;;;;;;6244692;22;20486;-73
2021/11/19 01:44:58;;;;;;;249.43;53.10;;;12.20;99.90;;;;;;6244899;23;20431;-72
2021/11/19 01:47:27;;;;;;;219.37;46.93;;;12.20;99.90;;;;;;6245707;23;20409;-72
2021/11/19 01:49:56;;;;;;;411.57;59.87;;;12.30;99.90;;;;;;6246227;23;20496;-72
2021/11/19 01:52:33;;;;;;;379.03;59.60;;;12.20;99.90;;;;;;6246806;22;20402;-73
2021/11/19 01:55:12;;;;;;;467.23;80.97;;;12.30;99.90;;;;;;6258625;23;20422;-73
2021/11/19 01:57:47;;;;;;;368.10;60.60;;;12.30;99.90;;;;;;6244831;23;20412;-73
2021/11/19 02:00:26;;;;;;;233.00;59.23;;;12.20;99.90;;;;;;6244634;23;20430;-73
2021/11/19 02:02:57;;;;;;;343.03;56.40;;;12.30;99.90;;;;;;6245343;22;20439;-73
2021/11/19 02:05:36;;;;;;;285.97;66.60;;;12.20;99.90;;;;;;6245747;23;20429;-73
2021/11/19 02:08:11;;;;;;;373.30;66.40;;;12.20;99.90;;;;;;6244831;23;20804;-72
2021/11/19 02:10:52;;;;;;;493.43;79.97;;;12.20;99.90;;;;;;6246214;23;20419;-72
2021/11/19 02:13:32;;;;;;;435.17;59.67;;;12.20;99.90;;;;;;6249713;22;20776;-72
2021/11/19 02:16:04;;;;;;;491.37;81.37;;;12.30;99.90;;;;;;6246792;23;20424;-72
2021/11/19 02:18:36;;;;;;;328.67;53.13;;;12.30;99.90;;;;;;6246492;23;20907;-72
2021/11/19 02:21:07;;;;;;;332.67;52.53;;;12.30;99.90;;;;;;6246615;23;20429;-72
2021/11/19 02:23:40;;;;;;;371.20;63.47;;;12.30;99.90;;;;;;6258265;22;20417;-73
2021/11/19 02:26:13;;;;;;;400.47;61.07;;;12.30;99.90;;;;;;6246207;23;20927;-72
2021/11/19 02:28:44;;;;;;;295.50;42.67;;;12.30;99.90;;;;;;6246461;23;20419;-73
2021/11/19 02:31:15;;;;;;;321.17;54.17;;;12.30;99.90;;;;;;6246318;23;20410;-72
2021/11/19 02:33:47;;;;;;;536.60;86.00;;;12.40;99.90;;;;;;6247765;22;20748;-73
2021/11/19 02:36:19;;;;;;;436.13;64.53;;;12.30;99.90;;;;;;6265863;22;20491;-73
2021/11/19 02:38:54;;;;;;;464.30;71.27;;;12.30;99.90;;;;;;6251526;22;20412;-72
2021/11/19 02:41:25;;;;;;;246.07;48.23;;;12.40;99.90;;;;;;6288620;22;20416;-73
2021/11/19 02:43:56;;;;;;;339.50;63.13;;;12.40;99.90;;;;;;6251377;22;20819;-73
2021/11/19 02:46:28;;;;;;;378.47;58.70;;;12.40;99.90;;;;;;6251046;22;20463;-72
2021/11/19 02:48:56;;;;;;;291.30;63.40;;;12.40;99.90;;;;;;6251561;22;20993;-72
2021/11/19 02:51:28;;;;;;;533.50;85.90;;;12.40;99.90;;;;;;6251174;22;20504;-73
2021/11/19 02:53:58;;;;;;;447.63;62.03;;;12.40;99.90;;;;;;6251407;22;20432;-72
2021/11/19 02:56:28;;;;;;;408.80;75.57;;;12.40;99.90;;;;;;6251110;22;20895;-73
2021/11/19 02:59:00;;;;;;;360.67;79.13;;;12.40;99.90;;;;;;6251065;22;20420;-72
2021/11/19 03:01:32;;;;;;;448.67;66.40;;;12.40;99.90;;;;;;6251726;22;20439;-72
2021/11/19 03:04:12;;;;;;;385.20;66.93;;;12.40;99.90;;;;;;6288758;22;20475;-72
2021/11/19 03:06:44;;;;;;;506.97;85.13;;;12.40;99.90;;;;;;6251158;22;20416;-73
2021/11/19 03:09:19;;;;;;;341.03;83.50;;;12.40;99.90;;;;;;6251112;22;20409;-73
2021/11/19 03:11:48;;;;;;;388.33;65.43;;;12.50;99.90;;;;;;6251037;22;20408;-72
2021/11/19 03:14:19;;;;;;;438.07;62.37;;;12.50;99.90;;;;;;6288284;22;20419;-73
2021/11/19 03:16:47;;;;;;;372.87;72.37;;;12.50;99.90;;;;;;6251056;22;20435;-73
2021/11/19 03:19:16;;;;;;;386.70;68.37;;;12.50;99.90;;;;;;6276438;22;20412;-72
2021/11/19 03:21:46;;;;;;;380.13;78.70;;;12.50;99.90;;;;;;6250417;22;20451;-72
2021/11/19 03:24:18;;;;;;;25.20;19.45;;;12.50;99.90;;;;;;6249490;22;20418;-72
2021/11/19 03:26:48;;;;;;;314.60;61.67;;;12.60;99.90;;;;;;6251402;22;20170;-72
2021/11/19 03:29:20;;;;;;;261.33;48.93;;;12.60;99.90;;;;;;6250821;22;20423;-72
2021/11/19 03:31:50;;;;;;;380.87;55.50;;;12.60;99.90;;;;;;6251148;22;20891;-72
2021/11/19 03:34:20;;;;;;;825.17;76.37;;;12.50;99.90;;;;;;6251103;22;20768;-73
2021/11/19 03:36:56;;;;;;;422.90;80.77;;;12.50;99.90;;;;;;6288148;22;20454;-73
2021/11/19 03:39:28;;;;;;;335.67;59.37;;;12.50;99.90;;;;;;6251540;22;20778;-73
2021/11/19 03:41:58;;;;;;;454.73;91.77;;;12.50;99.90;;;;;;6250625;22;20520;-73
2021/11/19 03:44:33;;;;;;;472.10;75.13;;;12.50;99.90;;;;;;6250966;22;20440;-72
2021/11/19 03:47:06;;;;;;;536.17;77.83;;;12.50;99.90;;;;;;6250586;22;20437;-72
2021/11/19 03:49:36;;;;;;;480.00;74.17;;;12.50;99.90;;;;;;6251678;22;20735;-73
2021/11/19 03:52:07;;;;;;;342.00;68.07;;;12.50;99.90;;;;;;6250712;22;20515;-73
2021/11/19 03:54:39;;;;;;;380.10;73.20;;;12.60;99.90;;;;;;6251012;22;20405;-73
2021/11/19 03:57:14;;;;;;;412.00;77.47;;;12.60;99.90;;;;;;6250925;22;20931;-73
2021/11/19 03:59:44;;;;;;;62.80;33.37;;;12.60;99.90;;;;;;6288366;22;20751;-72
2021/11/19 04:02:14;;;;;;;347.27;74.17;;;12.60;99.90;;;;;;6250391;22;20932;-72
2021/11/19 04:04:43;;;;;;;372.03;55.97;;;12.60;99.90;;;;;;6287804;22;20401;-73
2021/11/19 04:07:13;;;;;;;345.03;73.87;;;12.60;99.90;;;;;;6251071;22;20413;-73
2021/11/19 04:09:46;;;;;;;351.93;57.00;;;12.60;99.90;;;;;;6250804;22;20451;-72
2021/11/19 04:12:16;;;;;;;340.57;65.13;;;12.60;99.90;;;;;;6250259;22;20401;-72
2021/11/19 04:14:45;;;;;;;357.37;87.67;;;12.60;99.90;;;;;;6250440;22;20455;-72
2021/11/19 04:17:13;;;;;;;386.60;72.07;;;12.60;99.90;;;;;;6250350;22;20420;-72
2021/11/19 04:19:42;;;;;;;364.70;70.93;;;12.60;99.90;;;;;;6250322;22;20500;-73
2021/11/19 04:22:13;;;;;;;303.47;66.17;;;12.70;99.90;;;;;;6275782;22;20467;-72
2021/11/19 04:24:47;;;;;;;362.87;69.90;;;12.60;99.90;;;;;;6250315;22;20911;-72
2021/11/19 04:27:16;;;;;;;360.87;65.37;;;12.60;99.90;;;;;;6250252;22;20419;-73
2021/11/19 04:30:16;;;;;;;365.50;72.70;;;12.60;99.90;;;;;;6261146;22;20408;-73
2021/11/19 04:32:49;;;;;;;355.43;91.90;;;12.60;99.90;;;;;;6250082;22;20436;-72
2021/11/19 04:35:18;;;;;;;329.47;61.97;;;12.70;99.90;;;;;;6287534;22;20392;-72
2021/11/19 04:37:47;;;;;;;436.83;63.67;;;12.60;99.90;;;;;;6287828;22;20401;-73
2021/11/19 04:40:19;;;;;;;454.50;72.83;;;12.70;99.90;;;;;;6250412;22;20415;-73
2021/11/19 04:42:48;;;;;;;336.87;72.30;;;12.70;99.90;;;;;;6249890;22;20527;-73
2021/11/19 04:45:22;;;;;;;397.17;75.10;;;12.70;99.90;;;;;;6250212;22;20441;-73
2021/11/19 04:47:51;;;;;;;516.73;72.57;;;12.70;99.90;;;;;;6250386;22;20420;-73
2021/11/19 04:50:22;;;;;;;340.27;66.00;;;12.70;99.90;;;;;;6250070;22;20454;-73
2021/11/19 04:52:50;;;;;;;390.50;70.63;;;12.70;99.90;;;;;;6249926;22;20460;-73
2021/11/19 04:55:21;;;;;;;337.83;75.10;;;12.70;99.90;;;;;;6277395;22;20436;-73
2021/11/19 04:57:51;;;;;;;356.27;69.73;;;12.70;99.90;;;;;;6250003;22;20412;-73
2021/11/19 05:00:24;;;;;;;335.50;76.93;;;12.70;99.90;;;;;;6249940;22;20409;-72
2021/11/19 05:03:13;;;;;;;404.60;68.53;;;12.70;99.90;;;;;;6276957;22;20538;-72
2021/11/19 05:05:43;;;;;;;339.93;67.90;;;12.70;99.90;;;;;;6250162;22;20415;-72
2021/11/19 05:08:12;;;;;;;95.20;35.70;;;12.70;99.90;;;;;;6251111;22;20420;-72
2021/11/19 05:10:44;;;;;;;446.63;97.27;;;12.70;99.90;;;;;;6249955;22;20508;-72
2021/11/19 05:13:12;;;;;;;313.10;68.10;;;12.70;99.90;;;;;;6250187;22;20446;-72
2021/11/19 05:15:50;;;;;;;348.33;64.23;;;12.80;99.90;;;;;;6250064;22;20472;-73
2021/11/19 05:18:19;;;;;;;363.87;84.97;;;12.70;99.90;;;;;;6249837;22;20722;-72
2021/11/19 05:20:47;;;;;;;327.43;61.77;;;12.70;99.90;;;;;;6250182;22;20475;-73
2021/11/19 05:23:16;;;;;;;353.80;69.33;;;12.70;99.90;;;;;;6286880;22;20436;-73
2021/11/19 05:25:46;;;;;;;440.97;81.97;;;12.70;99.90;;;;;;6249680;22;20405;-73
2021/11/19 05:28:17;;;;;;;277.80;64.47;;;12.70;99.90;;;;;;6249780;22;20424;-72
2021/11/19 05:30:46;;;;;;;391.47;76.73;;;12.80;99.90;;;;;;6250215;22;20416;-73
2021/11/19 05:33:19;;;;;;;386.80;82.63;;;12.80;99.90;;;;;;6286182;22;20408;-73
2021/11/19 05:35:49;;;;;;;386.53;82.20;;;12.70;99.90;;;;;;6250037;22;20397;-73
2021/11/19 05:38:19;;;;;;;349.87;78.10;;;12.70;99.90;;;;;;6250510;22;20728;-73
2021/11/19 05:40:49;;;;;;;414.90;65.43;;;12.70;99.90;;;;;;6249788;22;20405;-73
2021/11/19 05:43:19;;;;;;;338.13;84.93;;;12.80;99.90;;;;;;6249854;22;20448;-73
2021/11/19 05:46:05;;;;;;;121.07;40.47;;;12.80;99.90;;;;;;6249745;22;20419;-73
2021/11/19 05:48:50;;;;;;;363.67;88.03;;;12.70;99.90;;;;;;6250997;22;20409;-72
2021/11/19 05:51:20;;;;;;;482.60;73.20;;;12.70;99.90;;;;;;6249971;22;20396;-72
2021/11/19 05:53:49;;;;;;;408.50;59.23;;;12.70;99.90;;;;;;6250448;22;20456;-73
2021/11/19 05:56:23;;;;;;;347.47;88.30;;;12.70;99.90;;;;;;6250649;22;20408;-73
2021/11/19 05:58:51;;;;;;;395.57;87.83;;;12.70;99.90;;;;;;6287394;22;20686;-72
2021/11/19 06:01:33;;;;;;;351.50;80.53;;;12.70;99.90;;;;;;6249692;22;20504;-72
2021/11/19 06:04:07;;;;;;;254.80;57.70;;;12.70;99.90;;;;;;6249723;22;21000;-72
2021/11/19 06:06:47;;;;;;;385.50;89.83;;;12.70;99.90;;;;;;6249472;22;20412;-73
2021/11/19 06:09:31;;;;;;;294.20;74.10;;;12.70;99.90;;;;;;6249542;22;20944;-72
2021/11/19 06:12:10;;;;;;;349.40;73.87;;;12.70;99.90;;;;;;6286087;22;20400;-73
2021/11/19 06:14:42;;;;;;;335.57;81.97;;;12.70;99.90;;;;;;6271785;22;20499;-72
2021/11/19 06:17:16;;;;;;;359.37;77.00;;;12.80;99.90;;;;;;6247132;22;20855;-72
2021/11/19 06:19:49;;;;;;;339.07;63.47;;;12.70;99.90;;;;;;6284852;22;20384;-73
2021/11/19 06:22:21;;;;;;;377.43;69.93;;;12.70;99.90;;;;;;6247718;22;20499;-72
2021/11/19 06:24:54;;;;;;;263.23;63.53;;;12.70;99.90;;;;;;6253426;22;20459;-73
2021/11/19 06:27:28;;;;;;;436.43;68.10;;;12.70;99.90;;;;;;6261422;22;20431;-72
2021/11/19 06:29:59;;;;;;;365.33;71.13;;;12.70;99.90;;;;;;6258073;22;20423;-72
2021/11/19 06:32:30;;;;;;;347.23;79.67;;;12.80;99.90;;;;;;6263262;22;20494;-72
2021/11/19 06:35:00;;;;;;;397.80;72.80;;;12.70;99.90;;;;;;6298869;22;20377;-72
2021/11/19 06:37:29;;;;;;;363.70;66.63;;;12.80;99.90;;;;;;6255016;23;20469;-72
2021/11/19 06:40:23;;;;;;;381.47;75.57;;;12.80;99.90;;;;;;6255101;23;20428;-72
2021/11/19 06:43:11;;;;;;;388.43;73.57;;;12.70;99.90;;;;;;6252629;22;20432;-72
2021/11/19 06:46:10;;;;;;;356.07;80.53;;;12.70;99.90;;;;;;6250133;23;20469;-73
2021/11/19 06:49:01;;;;;;;380.93;75.37;;;12.70;99.90;;;;;;6215472;22;20410;-72
2021/11/19 06:51:42;;;;;;;370.93;70.57;;;12.80;99.90;;;;;;6244937;23;20413;-73
2021/11/19 06:54:34;;;;;;;345.67;87.33;;;12.70;99.90;;;;;;6234612;23;20421;-73
2021/11/19 06:57:19;;;;;;;516.80;76.67;;;12.70;99.90;;;;;;6257084;23;20713;-73
2021/11/19 06:59:49;;;;;;;428.37;78.00;;;12.70;99.90;;;;;;6246165;23;20405;-72
2021/11/19 07:02:19;;;;;;;376.37;69.73;;;12.70;99.90;;;;;;6258173;22;20708;-72
2021/11/19 07:04:48;;;;;;;369.23;83.97;;;12.70;99.90;;;;;;6246191;23;20502;-73
2021/11/19 07:07:17;;;;;;;375.53;68.20;;;12.70;99.90;;;;;;6246369;23;20791;-73
2021/11/19 07:09:46;;;;;;;381.83;80.50;;;12.70;99.90;;;;;;6246171;23;20414;-73
2021/11/19 07:12:17;;;;;;;464.90;83.97;;;12.70;99.90;;;;;;6246846;22;20398;-73
2021/11/19 07:15:01;;;;;;;233.73;62.67;;;12.80;99.90;;;;;;6246459;23;20736;-73
2021/11/19 07:17:30;;;;;;;47.97;28.37;;;12.70;99.90;;;;;;6249606;23;20463;-73
2021/11/19 07:19:58;;;;;;;344.33;71.83;;;12.70;99.90;;;;;;6267315;23;20421;-73
2021/11/19 07:22:28;;;;;;;352.40;69.27;;;12.70;99.90;;;;;;6256296;22;20413;-72
2021/11/19 07:25:08;;;;;;;353.60;80.83;;;12.80;99.90;;;;;;6250734;23;20429;-72
2021/11/19 07:27:37;;;;;;;409.37;85.47;;;12.70;99.90;;;;;;6250085;23;20401;-72
2021/11/19 07:30:13;;;;;;;350.17;83.30;;;12.80;99.90;;;;;;6249842;23;20413;-72
2021/11/19 07:33:14;;;;;;;192.57;43.30;;;12.70;99.90;;;;;;6250293;22;20497;-72
2021/11/19 07:36:04;;;;;;;418.97;74.00;;;12.70;99.90;;;;;;6263817;22;20837;-72
2021/11/19 07:38:56;;;;;;;99.97;43.33;;;12.80;99.90;;;;;;6251309;22;20961;-72
2021/11/19 07:41:45;;;;;;;115.43;41.23;;;12.70;99.90;;;;;;6252716;22;20412;-72
2021/11/19 07:44:32;;;;;;;129.80;46.47;;;12.70;99.90;;;;;;6278599;22;20436;-72
2021/11/19 07:47:15;;;;;;;408.70;90.50;;;12.70;99.90;;;;;;6250984;22;20412;-72
2021/11/19 07:49:44;;;;;;;288.77;58.20;;;12.70;99.90;;;;;;6250671;22;20416;-72
2021/11/19 07:52:19;;;;;;;522.30;99.07;;;12.70;99.90;;;;;;6250582;22;20412;-73
2021/11/19 07:54:47;;;;;;;81.27;38.70;;;12.70;99.90;;;;;;6251731;22;20721;-73
2021/11/19 07:57:20;;;;;;;383.20;67.57;;;12.70;99.90;;;;;;6276195;22;20892;-73
2021/11/19 07:59:49;;;;;;;418.57;80.63;;;12.70;99.90;;;;;;6276070;22;20458;-72
2021/11/19 08:02:18;;;;;;;400.03;88.63;;;12.80;99.90;;;;;;6250387;22;20413;-73
2021/11/19 08:04:47;;;;;;;372.27;75.97;;;12.80;99.90;;;;;;6250491;22;20939;-73
2021/11/19 08:07:26;;;;;;;364.30;80.00;;;12.80;99.90;;;;;;6250391;22;20397;-73
2021/11/19 08:09:55;;;;;;;350.47;75.83;;;12.80;99.90;;;;;;6288601;22;20440;-73
2021/11/19 08:12:30;;;;;;;168.00;45.40;;;12.80;99.90;;;;;;6251324;22;20440;-73
2021/11/19 08:15:35;;;;;;;413.10;83.03;;;12.80;99.90;;;;;;6268904;22;20460;-73
2021/11/19 08:18:12;;;;;;;421.07;79.63;;;12.80;99.90;;;;;;6250516;22;20413;-73
2021/11/19 08:20:44;;;;;;;159.50;44.67;;;12.80;99.90;;;;;;6250478;22;20466;-73
2021/11/19 08:23:17;;;;;;;198.03;51.43;;;12.80;99.90;;;;;;6250257;22;20494;-72
2021/11/19 08:25:46;;;;;;;509.23;78.90;;;12.80;99.90;;;;;;6287726;22;20801;-72
2021/11/19 08:28:31;;;;;;;157.33;42.20;;;12.80;99.90;;;;;;6288046;22;20381;-73
2021/11/19 08:31:00;;;;;;;405.53;86.07;;;12.80;99.90;;;;;;6277732;22;20416;-73
2021/11/19 08:33:30;;;;;;;126.63;36.10;;;12.80;99.90;;;;;;6285754;22;20900;-73
2021/11/19 08:35:59;;;;;;;539.13;95.33;;;12.80;99.90;;;;;;6287696;22;20480;-73
2021/11/19 08:38:28;;;;;;;440.23;93.50;;;12.80;99.90;;;;;;6288013;22;20711;-73
2021/11/19 08:40:57;;;;;;;240.80;69.20;;;12.90;99.90;;;;;;6287648;22;20429;-73
2021/11/19 08:43:28;;;;;;;63.17;29.10;;;12.90;99.90;;;;;;6287356;22;20472;-73
2021/11/19 08:45:59;;;;;;;574.40;93.57;;;12.90;99.90;;;;;;6288152;22;20380;-73
2021/11/19 08:48:30;;;;;;;227.83;55.93;;;12.90;99.90;;;;;;6277794;22;20450;-72
2021/11/19 08:51:00;;;;;;;63.47;35.47;;;12.90;99.90;;;;;;6277515;22;20389;-72
2021/11/19 08:53:29;;;;;;;198.87;62.43;;;12.90;99.90;;;;;;6249958;22;20428;-73
2021/11/19 08:56:02;;;;;;;45.00;30.57;;;13.00;99.90;;;;;;6249990;22;20886;-73
2021/11/19 08:58:38;;;;;;;131.97;41.80;;;13.00;99.90;;;;;;6287425;22;20377;-73
2021/11/19 09:01:08;;;;;;;587.33;99.50;;;13.00;99.90;;;;;;6287745;22;20401;-73
2021/11/19 09:03:38;;;;;;;438.77;95.00;;;13.00;99.90;;;;;;6287084;22;20423;-73
2021/11/19 09:06:08;;;;;;;249.87;37.97;;;13.00;99.90;;;;;;6287344;22;20407;-73
2021/11/19 09:08:39;;;;;;;216.87;53.40;;;13.00;99.90;;;;;;6287661;22;20716;-73
2021/11/19 09:11:09;;;;;;;339.50;70.23;;;13.00;99.90;;;;;;6287980;22;20374;-73
2021/11/19 09:13:38;;;;;;;82.07;31.03;;;13.00;99.90;;;;;;6287194;22;20503;-73
2021/11/19 09:16:09;;;;;;;385.50;79.60;;;13.00;99.90;;;;;;6287833;22;20389;-73
2021/11/19 09:18:54;;;;;;;145.67;33.87;;;13.00;99.90;;;;;;6287181;22;20472;-73
2021/11/19 09:21:30;;;;;;;162.03;66.23;;;13.10;99.90;;;;;;6249599;22;20459;-73
2021/11/19 09:24:06;;;;;;;271.13;66.37;;;13.10;99.90;;;;;;6249585;22;20433;-73
2021/11/19 09:26:38;;;;;;;235.50;56.80;;;13.10;99.90;;;;;;6286597;22;20471;-73
2021/11/19 09:29:11;;;;;;;81.87;42.27;;;13.10;99.90;;;;;;6276713;22;20388;-73
2021/11/19 09:31:40;;;;;;;455.73;73.50;;;13.10;99.90;;;;;;6275300;22;20437;-73
2021/11/19 09:34:11;;;;;;;362.50;78.30;;;13.10;99.90;;;;;;6287307;22;20891;-73
2021/11/19 09:36:41;;;;;;;309.10;78.20;;;13.10;99.90;;;;;;6287164;22;20401;-73
2021/11/19 09:39:11;;;;;;;175.03;46.27;;;13.10;99.90;;;;;;6287634;22;20392;-73
2021/11/19 09:42:02;;;;;;;377.20;95.63;;;13.10;99.90;;;;;;6287226;22;20848;-73
2021/11/19 09:45:12;;;;;;;134.07;45.27;;;13.10;99.90;;;;;;6287258;22;20515;-73
2021/11/19 09:48:13;;;;;;;86.07;43.27;;;13.20;99.90;;;;;;6205474;22;20782;-73
2021/11/19 09:51:30;;;;;;;117.03;47.17;;;13.20;99.90;;;;;;6287645;22;20378;-73
2021/11/19 09:54:28;;;;;;;83.00;46.03;;;13.20;99.90;;;;;;6286948;22;20413;-73
2021/11/19 09:57:27;;;;;;;336.43;68.97;;;13.20;99.90;;;;;;6249658;22;20447;-73
2021/11/19 10:00:15;;;;;;;102.70;51.33;;;13.20;99.90;;;;;;6249799;22;20954;-73
2021/11/19 10:03:00;;;;;;;367.77;74.33;;;13.20;99.90;;;;;;6287274;22;20799;-73
2021/11/19 10:05:41;;;;;;;83.77;43.03;;;13.20;99.90;;;;;;6250689;22;20471;-73
2021/11/19 10:08:45;;;;;;;105.60;42.27;;;13.20;99.90;;;;;;6249521;22;20393;-73
2021/11/19 10:11:21;;;;;;;631.67;113.13;;;13.20;99.90;;;;;;6245206;22;20453;-73
2021/11/19 10:14:26;;;;;;;82.77;35.63;;;13.20;99.90;;;;;;6287601;22;20502;-73
2021/11/19 10:17:39;;;;;;;253.30;74.03;;;13.20;99.90;;;;;;6287233;22;20720;-73
2021/11/19 10:20:11;;;;;;;176.10;62.33;;;13.20;99.90;;;;;;6196437;22;20412;-73
2021/11/19 10:22:42;;;;;;;380.67;84.63;;;13.20;99.90;;;;;;6287126;22;20482;-73
2021/11/19 10:25:16;;;;;;;644.40;122.33;;;13.20;99.90;;;;;;6286866;22;20420;-73
2021/11/19 10:27:47;;;;;;;67.37;44.50;;;13.30;99.90;;;;;;6287313;22;20491;-73
2021/11/19 10:30:33;;;;;;;444.23;108.50;;;13.20;99.90;;;;;;6250851;22;20448;-73
2021/11/19 10:33:06;;;;;;;119.70;52.87;;;13.30;99.90;;;;;;6278159;22;20527;-73
2021/11/19 10:35:59;;;;;;;141.60;62.73;;;13.30;99.90;;;;;;6288844;22;20373;-73
2021/11/19 10:39:06;;;;;;;398.80;112.33;;;13.30;99.90;;;;;;6289165;22;20427;-73
2021/11/19 10:42:23;;;;;;;362.80;102.27;;;13.30;99.90;;;;;;6288938;22;20380;-73
2021/11/19 10:45:08;;;;;;;1595.57;233.40;;;13.30;99.90;;;;;;6288923;22;20434;-73
2021/11/19 10:48:06;;;;;;;216.23;83.87;;;13.30;99.90;;;;;;6289250;22;20385;-73
2021/11/19 10:51:05;;;;;;;409.43;117.87;;;13.40;99.90;;;;;;6256429;22;20423;-73
2021/11/19 10:54:01;;;;;;;612.63;174.33;;;13.40;99.90;;;;;;6288682;22;20815;-73
2021/11/19 10:56:43;;;;;;;531.97;140.17;;;13.40;99.90;;;;;;6289342;22;20392;-73
2021/11/19 10:59:36;;;;;;;650.17;165.90;;;13.40;99.90;;;;;;6251269;22;20405;-73
2021/11/19 11:02:32;;;;;;;680.63;183.63;;;13.50;99.90;;;;;;6250281;22;20408;-74
2021/11/19 11:05:02;;;;;;;1044.03;227.33;;;13.50;99.90;;;;;;6252184;22;20428;-73
2021/11/19 11:07:32;;;;;;;889.20;190.33;;;13.50;99.90;;;;;;6261466;22;20431;-73
2021/11/19 11:10:05;;;;;;;1707.40;297.17;;;13.50;99.90;;;;;;6312499;22;20397;-72
2021/11/19 11:12:46;;;;;;;1617.07;291.63;;;13.60;99.90;;;;;;6311001;22;20412;-73
2021/11/19 11:15:32;;;;;;;789.83;217.43;;;13.60;99.90;;;;;;6311434;22;20809;-72
2021/11/19 11:18:21;;;;;;;1633.80;377.97;;;13.60;99.90;;;;;;6309941;22;20412;-73
2021/11/19 11:21:09;;;;;;;923.87;259.90;;;13.60;99.90;;;;;;6310702;22;20381;-73
2021/11/19 11:23:50;;;;;;;1379.93;310.50;;;13.60;99.90;;;;;;6267801;22;20467;-72
2021/11/19 11:26:20;;;;;;;1999.90;454.83;;;13.60;99.90;;;;;;6298206;22;20496;-72
2021/11/19 11:28:52;;;;;;;1990.03;468.60;;;13.70;99.90;;;;;;6297998;22;20447;-73
2021/11/19 11:31:44;;;;;;;1881.40;433.97;;;13.70;99.90;;;;;;6285317;22;20416;-73
2021/11/19 11:34:24;;;;;;;1999.90;579.13;;;13.80;99.90;;;;;;6281477;22;20437;-73
2021/11/19 11:37:10;;;;;;;1999.90;608.50;;;13.80;99.90;;;;;;6279608;22;20416;-72
2021/11/19 11:39:42;;;;;;;1999.90;621.90;;;13.80;99.90;;;;;;6279021;22;20432;-72
2021/11/19 11:42:15;;;;;;;1999.90;644.97;;;13.80;99.90;;;;;;6288986;22;20468;-73
2021/11/19 11:44:46;;;;;;;1999.90;616.67;;;13.80;99.90;;;;;;6251038;22;20443;-73
2021/11/19 11:47:29;;;;;;;1999.90;643.00;;;13.90;99.90;;;;;;6288819;22;20797;-73
2021/11/19 11:50:00;;;;;;;1999.90;611.23;;;13.90;99.90;;;;;;6278429;22;20385;-73
2021/11/19 11:52:36;;;;;;;1999.90;720.03;;;13.90;99.90;;;;;;6288052;22;20460;-73
2021/11/19 11:55:19;;;;;;;1999.90;671.70;;;13.90;99.90;;;;;;6250850;22;20444;-73
2021/11/19 11:58:00;;;;;;;1999.90;791.60;;;14.00;99.90;;;;;;6288761;22;20499;-73
2021/11/19 12:00:33;;;;;;;1999.90;707.80;;;14.00;99.90;;;;;;6278097;22;20389;-73
2021/11/19 12:03:20;;;;;;;1999.90;712.20;;;14.00;99.90;;;;;;6288094;22;20427;-73
2021/11/19 12:05:53;;;;;;;1999.90;834.47;;;14.00;99.90;;;;;;6288259;22;20417;-73
2021/11/19 12:08:55;;;;;;;1999.90;723.53;;;14.00;99.90;;;;;;6287867;22;20785;-73
2021/11/19 12:12:02;;;;;;;1999.90;744.43;;;14.00;99.90;;;;;;6288481;22;20462;-73
2021/11/19 12:14:55;;;;;;;1999.90;800.40;;;14.10;99.90;;;;;;6287790;22;20408;-73
2021/11/19 12:17:41;;;;;;;1999.90;765.57;;;14.10;99.90;;;;;;6288759;22;20770;-72
2021/11/19 12:20:17;;;;;;;1999.90;798.90;;;14.10;99.90;;;;;;6250354;22;20443;-73
2021/11/19 12:22:49;;;;;;;1999.90;834.13;;;14.10;99.90;;;;;;6287926;22;20910;-73
2021/11/19 12:26:13;;;;;;;1999.90;747.00;;;14.10;99.90;;;;;;6287715;22;20392;-73
2021/11/19 12:28:44;;;;;;;1999.90;596.10;;;14.10;99.90;;;;;;6288374;22;20403;-73
2021/11/19 12:31:17;;;;;;;1999.90;835.70;;;14.10;99.90;;;;;;6288347;22;20900;-72
2021/11/19 12:33:48;;;;;;;1999.90;676.30;;;14.10;99.90;;;;;;6250389;22;20946;-73
2021/11/19 12:36:21;;;;;;;1999.90;851.17;;;14.10;99.90;;;;;;6288154;22;20491;-73
2021/11/19 12:38:51;;;;;;;1999.90;642.80;;;14.10;99.90;;;;;;6288066;22;20362;-73
2021/11/19 12:41:25;;;;;;;1999.90;730.67;;;14.10;99.90;;;;;;6250375;22;20401;-73
2021/11/19 12:44:16;;;;;;;1999.90;667.23;;;14.10;99.90;;;;;;6287894;22;20418;-73
2021/11/19 12:47:06;;;;;;;1999.90;715.40;;;14.10;99.90;;;;;;6288412;22;20512;-73
2021/11/19 12:50:05;;;;;;;1999.90;709.93;;;14.10;99.90;;;;;;6273050;22;20483;-73
2021/11/19 12:52:39;;;;;;;1999.90;753.83;;;14.10;99.90;;;;;;6287728;22;20417;-73
2021/11/19 12:55:27;;;;;;;1999.90;623.30;;;14.10;99.90;;;;;;6249549;22;20400;-73
2021/11/19 12:58:08;;;;;;;1999.90;673.30;;;14.10;99.90;;;;;;6287715;22;20378;-73
2021/11/19 13:01:05;;;;;;;1999.90;759.30;;;14.10;99.90;;;;;;6287766;22;20412;-73